createdAt,value
2019-03-03T00:01:23.337Z,100752.13
2019-03-03T00:03:54.285Z,100751.55
2019-03-03T00:06:25.550Z,100741.84
2019-03-03T00:08:55.503Z,100745.79
2019-03-03T00:11:25.483Z,100744.95
2019-03-03T00:13:55.537Z,100742.31
2019-03-03T00:16:25.343Z,100748.42
2019-03-03T00:18:55.310Z,100756.70
2019-03-03T00:21:25.521Z,100749.27
2019-03-03T00:23:55.475Z,100754.55
2019-03-03T00:26:25.565Z,100753.70
2019-03-03T00:28:55.510Z,100745.79
2019-03-03T00:31:37.476Z,100746.75
2019-03-03T00:34:07.438Z,100738.72
2019-03-03T00:36:55.318Z,100738.24
2019-03-03T00:39:47.580Z,100735.72
2019-03-03T00:42:35.765Z,100734.52
2019-03-03T00:45:15.682Z,100733.32
2019-03-03T00:48:03.501Z,100713.67
2019-03-03T00:50:41.630Z,100714.98
2019-03-03T00:53:34.308Z,100720.26
2019-03-03T00:56:13.188Z,100714.89
2019-03-03T00:59:00.929Z,100710.69
2019-03-03T01:01:36.470Z,100719.08
2019-03-03T01:04:18.665Z,100713.05
2019-03-03T01:07:02.513Z,100718.23
2019-03-03T01:09:38.779Z,100716.17
2019-03-03T01:12:17.192Z,100709.69
2019-03-03T01:15:13.863Z,100711.02
2019-03-03T01:17:49.507Z,100710.17
2019-03-03T01:20:41.487Z,100698.06
2019-03-03T01:23:33.681Z,100697.70
2019-03-03T01:26:03.903Z,100698.30
2019-03-03T01:28:35.253Z,100698.30
2019-03-03T01:31:05.423Z,100693.98
2019-03-03T01:33:35.372Z,100700.34
2019-03-03T01:36:05.662Z,100693.75
2019-03-03T01:38:35.829Z,100693.16
2019-03-03T01:41:06.379Z,100689.56
2019-03-03T01:43:36.412Z,100702.27
2019-03-03T01:46:06.395Z,100689.45
2019-03-03T01:48:36.369Z,100692.92
2019-03-03T01:51:06.588Z,100690.28
2019-03-03T01:53:37.992Z,100689.72
2019-03-03T01:56:08.268Z,100683.13
2019-03-03T01:58:38.114Z,100683.85
2019-03-03T02:01:08.075Z,100691.16
2019-03-03T02:03:38.355Z,100686.58
2019-03-03T02:06:09.134Z,100681.79
2019-03-03T02:08:39.331Z,100672.56
2019-03-03T02:11:09.608Z,100669.09
2019-03-03T02:13:39.464Z,100658.54
2019-03-03T02:16:09.724Z,100663.81
2019-03-03T02:18:39.684Z,100649.31
2019-03-03T02:21:09.491Z,100645.72
2019-03-03T02:23:39.360Z,100637.81
2019-03-03T02:26:09.333Z,100631.22
2019-03-03T02:28:39.223Z,100622.11
2019-03-03T02:31:09.218Z,100620.59
2019-03-03T02:33:39.302Z,100611.48
2019-03-03T02:36:09.257Z,100598.78
2019-03-03T02:38:39.232Z,100606.41
2019-03-03T02:41:10.209Z,100609.05
2019-03-03T02:43:41.606Z,100613.84
2019-03-03T02:46:12.090Z,100607.25
2019-03-03T02:48:42.037Z,100595.88
2019-03-03T02:51:11.994Z,100594.08
2019-03-03T02:53:41.915Z,100595.03
2019-03-03T02:56:11.899Z,100602.83
2019-03-03T02:58:41.799Z,100592.76
2019-03-03T03:01:20.958Z,100590.03
2019-03-03T03:03:50.930Z,100582.70
2019-03-03T03:06:27.474Z,100579.58
2019-03-03T03:09:31.388Z,100573.34
2019-03-03T03:12:07.662Z,100572.66
2019-03-03T03:14:54.788Z,100574.58
2019-03-03T03:17:34.655Z,100569.30
2019-03-03T03:20:14.980Z,100560.56
2019-03-03T03:23:02.849Z,100566.55
2019-03-03T03:26:10.108Z,100564.39
2019-03-03T03:28:58.993Z,100551.09
2019-03-03T03:31:40.950Z,100554.09
2019-03-03T03:34:22.181Z,100545.19
2019-03-03T03:36:57.575Z,100545.34
2019-03-03T03:39:33.945Z,100534.64
2019-03-03T03:42:10.001Z,100536.32
2019-03-03T03:45:14.354Z,100530.20
2019-03-03T03:48:00.752Z,100530.69
2019-03-03T03:50:48.844Z,100529.05
2019-03-03T03:53:41.510Z,100523.41
2019-03-03T03:56:33.260Z,100525.42
2019-03-03T03:59:22.205Z,100522.45
2019-03-03T04:02:05.469Z,100517.51
2019-03-03T04:04:57.709Z,100516.34
2019-03-03T04:07:40.296Z,100510.23
2019-03-03T04:10:29.253Z,100511.75
2019-03-03T04:13:21.205Z,100511.63
2019-03-03T04:16:08.843Z,100514.14
2019-03-03T04:18:56.868Z,100510.43
2019-03-03T04:21:44.703Z,100508.27
2019-03-03T04:24:36.953Z,100504.55
2019-03-03T04:27:16.666Z,100502.63
2019-03-03T04:30:08.285Z,100500.70
2019-03-03T04:32:49.040Z,100507.02
2019-03-03T04:35:26.813Z,100498.42
2019-03-03T04:38:04.047Z,100503.06
2019-03-03T04:40:43.671Z,100500.78
2019-03-03T04:43:38.686Z,100499.83
2019-03-03T04:46:16.477Z,100500.18
2019-03-03T04:49:15.095Z,100489.98
2019-03-03T04:51:56.251Z,100482.08
2019-03-03T04:54:45.596Z,100480.16
2019-03-03T04:57:33.486Z,100479.55
2019-03-03T05:00:31.927Z,100465.88
2019-03-03T05:03:17.789Z,100461.09
2019-03-03T05:06:09.941Z,100456.53
2019-03-03T05:08:48.363Z,100455.21
2019-03-03T05:12:31.915Z,100442.50
2019-03-03T05:15:26.563Z,100446.34
2019-03-03T05:18:02.229Z,100444.54
2019-03-03T05:20:47.729Z,100438.78
2019-03-03T05:23:17.638Z,100442.73
2019-03-03T05:25:47.902Z,100449.20
2019-03-03T05:28:18.424Z,100450.16
2019-03-03T05:30:48.380Z,100440.45
2019-03-03T05:33:18.193Z,100439.14
2019-03-03T05:35:48.164Z,100437.46
2019-03-03T05:38:18.133Z,100441.77
2019-03-03T05:40:48.395Z,100448.37
2019-03-03T05:43:18.374Z,100444.41
2019-03-03T05:45:48.657Z,100439.14
2019-03-03T05:48:18.526Z,100440.45
2019-03-03T05:50:48.407Z,100441.65
2019-03-03T05:53:18.377Z,100445.09
2019-03-03T05:55:49.656Z,100441.48
2019-03-03T05:58:19.629Z,100444.48
2019-03-03T06:00:49.603Z,100440.88
2019-03-03T06:03:19.518Z,100438.95
2019-03-03T06:05:49.415Z,100437.28
2019-03-03T06:08:19.293Z,100433.68
2019-03-03T06:10:49.187Z,100441.95
2019-03-03T06:13:19.053Z,100434.39
2019-03-03T06:15:49.013Z,100428.63
2019-03-03T06:18:18.969Z,100427.19
2019-03-03T06:20:49.182Z,100423.71
2019-03-03T06:23:19.077Z,100421.43
2019-03-03T06:25:49.211Z,100419.15
2019-03-03T06:28:19.167Z,100418.66
2019-03-03T06:30:51.063Z,100414.35
2019-03-03T06:33:21.018Z,100416.52
2019-03-03T06:35:52.835Z,100420.34
2019-03-03T06:38:23.902Z,100418.19
2019-03-03T06:40:54.037Z,100414.23
2019-03-03T06:43:24.102Z,100416.73
2019-03-03T06:45:54.449Z,100415.42
2019-03-03T06:48:24.332Z,100410.63
2019-03-03T06:50:54.218Z,100414.09
2019-03-03T06:53:24.182Z,100418.73
2019-03-03T06:55:54.527Z,100419.09
2019-03-03T06:58:24.766Z,100412.14
2019-03-03T07:00:54.747Z,100421.38
2019-03-03T07:03:25.522Z,100412.14
2019-03-03T07:05:55.546Z,100412.78
2019-03-03T07:08:25.840Z,100406.54
2019-03-03T07:10:55.811Z,100416.93
2019-03-03T07:13:26.044Z,100413.45
2019-03-03T07:15:56.317Z,100414.65
2019-03-03T07:18:26.264Z,100415.84
2019-03-03T07:20:56.210Z,100416.19
2019-03-03T07:23:26.896Z,100418.22
2019-03-03T07:25:56.847Z,100414.97
2019-03-03T07:28:28.287Z,100411.24
2019-03-03T07:30:58.571Z,100404.29
2019-03-03T07:33:36.673Z,100402.72
2019-03-03T07:36:04.910Z,100410.15
2019-03-03T07:38:35.146Z,100414.78
2019-03-03T07:41:05.200Z,100414.17
2019-03-03T07:43:35.097Z,100418.61
2019-03-03T07:46:05.055Z,100416.81
2019-03-03T07:48:35.378Z,100410.92
2019-03-03T07:51:05.644Z,100417.87
2019-03-03T07:53:35.636Z,100410.66
2019-03-03T07:56:05.590Z,100411.02
2019-03-03T07:58:35.459Z,100412.20
2019-03-03T08:01:05.408Z,100410.50
2019-03-03T08:03:36.881Z,100409.50
2019-03-03T08:06:06.847Z,100408.89
2019-03-03T08:08:37.077Z,100411.39
2019-03-03T08:11:07.044Z,100418.57
2019-03-03T08:13:37.051Z,100413.52
2019-03-03T08:16:07.020Z,100411.71
2019-03-03T08:18:38.616Z,100413.39
2019-03-03T08:21:08.897Z,100414.70
2019-03-03T08:23:38.712Z,100415.06
2019-03-03T08:26:09.203Z,100410.97
2019-03-03T08:28:39.226Z,100421.05
2019-03-03T08:31:09.204Z,100417.41
2019-03-03T08:33:39.160Z,100412.96
2019-03-03T08:36:09.706Z,100408.52
2019-03-03T08:38:39.699Z,100416.08
2019-03-03T08:41:09.596Z,100403.88
2019-03-03T08:43:43.877Z,100405.88
2019-03-03T08:46:48.352Z,100406.23
2019-03-03T08:49:26.906Z,100410.67
2019-03-03T08:52:17.291Z,100420.27
2019-03-03T08:55:04.561Z,100409.58
2019-03-03T08:57:45.791Z,100408.25
2019-03-03T09:00:28.723Z,100415.43
2019-03-03T09:03:08.769Z,100410.98
2019-03-03T09:06:06.035Z,100421.10
2019-03-03T09:09:00.863Z,100414.16
2019-03-03T09:11:38.016Z,100404.30
2019-03-03T09:14:17.497Z,100408.81
2019-03-03T09:16:54.946Z,100412.06
2019-03-03T09:19:43.324Z,100405.11
2019-03-03T09:22:26.617Z,100409.55
2019-03-03T09:25:14.182Z,100405.73
2019-03-03T09:27:51.738Z,100406.91
2019-03-03T09:30:39.865Z,100403.34
2019-03-03T09:33:50.098Z,100408.98
2019-03-03T09:36:39.544Z,100408.62
2019-03-03T09:39:32.855Z,100409.33
2019-03-03T09:42:10.173Z,100406.12
2019-03-03T09:44:55.022Z,100403.25
2019-03-03T09:47:34.569Z,100402.58
2019-03-03T09:50:16.048Z,100394.18
2019-03-03T09:53:03.881Z,100401.39
2019-03-03T09:55:49.786Z,100403.67
2019-03-03T09:58:38.694Z,100400.55
2019-03-03T10:01:36.551Z,100401.52
2019-03-03T10:04:31.031Z,100396.59
2019-03-03T10:07:28.946Z,100392.86
2019-03-03T10:10:07.303Z,100397.98
2019-03-03T10:12:45.887Z,100394.37
2019-03-03T10:15:40.602Z,100399.03
2019-03-03T10:18:19.198Z,100394.11
2019-03-03T10:21:04.129Z,100403.96
2019-03-03T10:23:51.775Z,100393.41
2019-03-03T10:26:34.965Z,100387.16
2019-03-03T10:29:32.671Z,100403.34
2019-03-03T10:32:31.246Z,100394.46
2019-03-03T10:35:18.814Z,100392.53
2019-03-03T10:38:36.134Z,100393.84
2019-03-03T10:41:39.095Z,100391.20
2019-03-03T10:44:29.032Z,100391.69
2019-03-03T10:47:33.536Z,100381.62
2019-03-03T10:50:14.817Z,100382.94
2019-03-03T10:53:03.953Z,100375.98
2019-03-03T10:55:43.354Z,100374.41
2019-03-03T10:58:23.977Z,100376.91
2019-03-03T11:01:08.562Z,100367.55
2019-03-03T11:03:56.721Z,100366.92
2019-03-03T11:06:55.024Z,100368.56
2019-03-03T11:09:31.535Z,100364.83
2019-03-03T11:12:23.159Z,100369.97
2019-03-03T11:14:59.440Z,100370.68
2019-03-03T11:17:54.192Z,100376.66
2019-03-03T11:20:42.303Z,100370.41
2019-03-03T11:23:37.147Z,100369.93
2019-03-03T11:26:22.260Z,100369.09
2019-03-03T11:29:10.268Z,100368.61
2019-03-03T11:31:52.907Z,100362.49
2019-03-03T11:34:41.547Z,100358.53
2019-03-03T11:37:21.924Z,100352.63
2019-03-03T11:40:10.314Z,100353.69
2019-03-03T11:43:02.323Z,100343.31
2019-03-03T11:45:50.131Z,100350.41
2019-03-03T11:48:52.622Z,100336.23
2019-03-03T11:51:44.247Z,100337.55
2019-03-03T11:54:22.314Z,100343.53
2019-03-03T11:56:58.598Z,100340.62
2019-03-03T11:59:57.155Z,100336.53
2019-03-03T12:03:04.851Z,100329.17
2019-03-03T12:05:40.098Z,100331.68
2019-03-03T12:08:29.055Z,100325.75
2019-03-03T12:11:16.489Z,100319.01
2019-03-03T12:14:05.341Z,100321.03
2019-03-03T12:16:52.958Z,100314.16
2019-03-03T12:19:48.271Z,100316.52
2019-03-03T12:22:34.183Z,100306.03
2019-03-03T12:25:31.160Z,100306.78
2019-03-03T12:28:12.713Z,100304.91
2019-03-03T12:31:07.665Z,100300.67
2019-03-03T12:34:02.727Z,100295.47
2019-03-03T12:36:40.128Z,100295.33
2019-03-03T12:39:19.534Z,100284.83
2019-03-03T12:42:13.732Z,100290.46
2019-03-03T12:45:11.446Z,100283.72
2019-03-03T12:47:59.436Z,100285.38
2019-03-03T12:50:36.712Z,100286.43
2019-03-03T12:53:31.787Z,100284.80
2019-03-03T12:56:30.547Z,100286.95
2019-03-03T12:59:15.263Z,100276.59
2019-03-03T13:01:55.856Z,100292.17
2019-03-03T13:04:37.386Z,100260.31
2019-03-03T13:07:34.892Z,100266.30
2019-03-03T13:10:19.467Z,100257.25
2019-03-03T13:13:20.924Z,100264.59
2019-03-03T13:16:09.976Z,100255.33
2019-03-03T13:18:57.099Z,100252.27
2019-03-03T13:21:49.608Z,100251.17
2019-03-03T13:24:29.996Z,100251.03
2019-03-03T13:27:18.158Z,100236.55
2019-03-03T13:30:05.831Z,100232.45
2019-03-03T13:32:45.524Z,100234.45
2019-03-03T13:35:33.949Z,100227.39
2019-03-03T13:38:12.980Z,100225.89
2019-03-03T13:41:00.789Z,100240.93
2019-03-03T13:43:30.885Z,100236.41
2019-03-03T13:46:01.385Z,100233.42
2019-03-03T13:48:31.622Z,100238.22
2019-03-03T13:51:01.937Z,100241.50
2019-03-03T13:53:32.240Z,100229.39
2019-03-03T13:56:02.894Z,100221.95
2019-03-03T13:58:32.978Z,100228.70
2019-03-03T14:01:03.313Z,100214.16
2019-03-03T14:03:33.297Z,100212.48
2019-03-03T14:06:03.260Z,100207.38
2019-03-03T14:08:33.212Z,100210.39
2019-03-03T14:11:03.179Z,100203.58
2019-03-03T14:13:33.513Z,100203.72
2019-03-03T14:16:03.481Z,100192.02
2019-03-03T14:18:33.363Z,100186.94
2019-03-03T14:21:03.337Z,100195.50
2019-03-03T14:23:34.342Z,100195.16
2019-03-03T14:26:04.631Z,100188.55
2019-03-03T14:28:34.599Z,100204.55
2019-03-03T14:31:04.562Z,100190.70
2019-03-03T14:33:35.684Z,100185.87
2019-03-03T14:36:05.878Z,100186.84
2019-03-03T14:38:35.825Z,100181.77
2019-03-03T14:41:05.898Z,100178.43
2019-03-03T14:43:36.902Z,100185.67
2019-03-03T14:46:06.818Z,100171.12
2019-03-03T14:48:36.698Z,100170.16
2019-03-03T14:51:06.796Z,100170.16
2019-03-03T14:53:37.965Z,100168.83
2019-03-03T14:56:07.938Z,100166.19
2019-03-03T14:58:38.017Z,100155.95
2019-03-03T15:01:07.877Z,100161.24
2019-03-03T15:03:37.752Z,100149.34
2019-03-03T15:06:07.758Z,100146.70
2019-03-03T15:08:38.167Z,100145.03
2019-03-03T15:11:08.094Z,100137.79
2019-03-03T15:13:38.080Z,100127.36
2019-03-03T15:16:08.343Z,100136.27
2019-03-03T15:18:38.330Z,100133.62
2019-03-03T15:21:10.040Z,100136.27
2019-03-03T15:23:40.386Z,100130.63
2019-03-03T15:26:10.734Z,100121.58
2019-03-03T15:28:41.775Z,100116.02
2019-03-03T15:31:12.454Z,100115.33
2019-03-03T15:33:42.432Z,100114.65
2019-03-03T15:36:12.618Z,100110.37
2019-03-03T15:38:42.584Z,100094.50
2019-03-03T15:41:12.863Z,100097.64
2019-03-03T15:43:42.870Z,100083.92
2019-03-03T15:46:12.924Z,100078.31
2019-03-03T15:48:42.892Z,100078.51
2019-03-03T15:51:13.182Z,100080.17
2019-03-03T15:53:43.227Z,100069.45
2019-03-03T15:56:13.251Z,100061.86
2019-03-03T15:58:43.204Z,100060.54
2019-03-03T16:01:15.854Z,100060.54
2019-03-03T16:03:46.606Z,100061.03
2019-03-03T16:06:16.640Z,100046.97
2019-03-03T16:08:47.682Z,100047.61
2019-03-03T16:11:18.020Z,100040.31
2019-03-03T16:13:47.983Z,100035.02
2019-03-03T16:16:17.933Z,100034.69
2019-03-03T16:18:47.916Z,100027.73
2019-03-03T16:21:18.323Z,100026.06
2019-03-03T16:23:48.992Z,100022.93
2019-03-03T16:26:19.481Z,100017.64
2019-03-03T16:28:49.416Z,100017.64
2019-03-03T16:31:19.406Z,100008.88
2019-03-03T16:33:49.392Z,100009.55
2019-03-03T16:36:19.407Z,100004.59
2019-03-03T16:38:49.407Z,99998.97
2019-03-03T16:41:19.670Z,99989.03
2019-03-03T16:43:51.445Z,99992.16
2019-03-03T16:46:21.820Z,99983.05
2019-03-03T16:48:51.762Z,99981.73
2019-03-03T16:51:22.218Z,99972.14
2019-03-03T16:53:52.225Z,99975.12
2019-03-03T16:56:22.270Z,99971.80
2019-03-03T16:58:52.329Z,99967.48
2019-03-03T17:01:22.372Z,99974.93
2019-03-03T17:03:52.693Z,99969.98
2019-03-03T17:06:22.706Z,99971.45
2019-03-03T17:08:53.033Z,99970.33
2019-03-03T17:11:23.022Z,99965.04
2019-03-03T17:13:52.991Z,99961.07
2019-03-03T17:16:23.329Z,99959.60
2019-03-03T17:18:53.769Z,99949.03
2019-03-03T17:21:23.774Z,99943.73
2019-03-03T17:23:54.159Z,99946.72
2019-03-03T17:26:24.138Z,99942.12
2019-03-03T17:28:54.154Z,99935.17
2019-03-03T17:31:24.106Z,99937.47
2019-03-03T17:33:55.058Z,99942.12
2019-03-03T17:36:25.042Z,99928.06
2019-03-03T17:38:54.911Z,99933.70
2019-03-03T17:41:24.868Z,99928.06
2019-03-03T17:43:54.844Z,99921.95
2019-03-03T17:46:24.853Z,99928.55
2019-03-03T17:48:54.835Z,99913.83
2019-03-03T17:51:24.819Z,99918.63
2019-03-03T17:53:54.770Z,99912.02
2019-03-03T17:56:25.079Z,99916.31
2019-03-03T17:58:55.121Z,99914.99
2019-03-03T18:01:25.089Z,99914.66
2019-03-03T18:03:55.054Z,99910.01
2019-03-03T18:06:24.973Z,99914.31
2019-03-03T18:08:55.033Z,99905.55
2019-03-03T18:11:25.012Z,99904.38
2019-03-03T18:13:55.412Z,99896.79
2019-03-03T18:16:25.414Z,99900.07
2019-03-03T18:18:55.731Z,99902.37
2019-03-03T18:21:27.296Z,99901.20
2019-03-03T18:23:57.307Z,99896.89
2019-03-03T18:26:27.284Z,99892.93
2019-03-03T18:28:57.247Z,99891.12
2019-03-03T18:31:27.473Z,99885.00
2019-03-03T18:33:57.479Z,99877.90
2019-03-03T18:36:29.175Z,99874.42
2019-03-03T18:38:59.810Z,99872.61
2019-03-03T18:41:30.070Z,99870.65
2019-03-03T18:44:00.034Z,99864.37
2019-03-03T18:46:29.990Z,99861.09
2019-03-03T18:48:59.956Z,99851.54
2019-03-03T18:51:29.921Z,99851.05
2019-03-03T18:54:01.086Z,99840.13
2019-03-03T18:56:31.114Z,99835.83
2019-03-03T18:59:01.430Z,99829.56
2019-03-03T19:01:31.459Z,99828.39
2019-03-03T19:04:01.695Z,99827.06
2019-03-03T19:06:31.741Z,99810.86
2019-03-03T19:09:01.832Z,99811.84
2019-03-03T19:11:33.408Z,99799.80
2019-03-03T19:14:03.419Z,99802.09
2019-03-03T19:16:36.173Z,99806.41
2019-03-03T19:19:07.589Z,99801.95
2019-03-03T19:21:37.675Z,99789.56
2019-03-03T19:24:07.707Z,99791.06
2019-03-03T19:26:37.770Z,99790.58
2019-03-03T19:29:09.760Z,99787.93
2019-03-03T19:31:41.157Z,99781.81
2019-03-03T19:34:11.192Z,99782.16
2019-03-03T19:36:41.250Z,99772.56
2019-03-03T19:39:11.675Z,99775.20
2019-03-03T19:41:43.278Z,99779.51
2019-03-03T19:44:19.418Z,99778.83
2019-03-03T19:46:49.671Z,99770.90
2019-03-03T19:49:19.744Z,99769.42
2019-03-03T19:51:50.118Z,99768.78
2019-03-03T19:54:20.498Z,99752.91
2019-03-03T19:56:50.894Z,99758.54
2019-03-03T19:59:20.849Z,99746.80
2019-03-03T20:01:51.051Z,99751.74
2019-03-03T20:04:21.399Z,99757.03
2019-03-03T20:06:53.345Z,99767.95
2019-03-03T20:09:25.626Z,99761.34
2019-03-03T20:11:55.962Z,99751.25
2019-03-03T20:14:26.499Z,99748.61
2019-03-03T20:16:56.875Z,99746.30
2019-03-03T20:19:30.674Z,99740.03
2019-03-03T20:22:00.916Z,99743.50
2019-03-03T20:24:31.512Z,99739.38
2019-03-03T20:27:01.807Z,99718.56
2019-03-03T20:29:32.332Z,99723.20
2019-03-03T20:32:02.362Z,99724.03
2019-03-03T20:34:35.282Z,99720.23
2019-03-03T20:37:05.276Z,99723.70
2019-03-03T20:39:35.420Z,99721.39
2019-03-03T20:42:09.667Z,99710.14
2019-03-03T20:44:41.706Z,99703.19
2019-03-03T20:47:13.208Z,99703.19
2019-03-03T20:49:43.231Z,99692.12
2019-03-03T20:52:13.541Z,99693.94
2019-03-03T20:55:02.607Z,99682.69
2019-03-03T20:57:36.599Z,99675.92
2019-03-03T21:00:27.054Z,99673.43
2019-03-03T21:02:58.926Z,99665.16
2019-03-03T21:05:32.351Z,99663.01
2019-03-03T21:08:03.806Z,99659.53
2019-03-03T21:10:33.917Z,99661.20
2019-03-03T21:13:05.808Z,99674.26
2019-03-03T21:15:35.793Z,99684.34
2019-03-03T21:18:09.762Z,99669.30
2019-03-03T21:20:39.847Z,99669.15
2019-03-03T21:23:10.457Z,99654.61
2019-03-03T21:25:40.779Z,99654.61
2019-03-03T21:28:10.804Z,99645.02
2019-03-03T21:30:40.812Z,99651.63
2019-03-03T21:33:10.905Z,99649.81
2019-03-03T21:35:42.531Z,99653.78
2019-03-03T21:38:13.901Z,99641.88
2019-03-03T21:40:44.255Z,99651.96
2019-03-03T21:43:34.427Z,99646.67
2019-03-03T21:46:04.370Z,99653.28
2019-03-03T21:48:34.353Z,99629.48
2019-03-03T21:51:04.968Z,99635.60
2019-03-03T21:53:34.945Z,99628.83
2019-03-03T21:56:04.944Z,99632.47
2019-03-03T21:58:35.309Z,99623.55
2019-03-03T22:01:07.699Z,99606.69
2019-03-03T22:03:38.310Z,99605.03
2019-03-03T22:06:12.619Z,99598.09
2019-03-03T22:08:43.207Z,99599.41
2019-03-03T22:11:14.920Z,99594.61
2019-03-03T22:13:45.438Z,99594.45
2019-03-03T22:16:15.584Z,99587.17
2019-03-03T22:18:45.876Z,99574.78
2019-03-03T22:21:16.432Z,99573.46
2019-03-03T22:23:46.542Z,99563.71
2019-03-03T22:26:16.583Z,99555.44
2019-03-03T22:28:47.105Z,99555.78
2019-03-03T22:31:19.014Z,99530.33
2019-03-03T22:33:49.035Z,99514.45
2019-03-03T22:36:19.662Z,99502.72
2019-03-03T22:38:49.732Z,99486.69
2019-03-03T22:41:19.907Z,99479.42
2019-03-03T22:43:49.886Z,99454.64
2019-03-03T22:46:20.154Z,99450.51
2019-03-03T22:48:50.126Z,99451.14
2019-03-03T22:51:20.081Z,99443.73
2019-03-03T22:53:49.976Z,99441.39
2019-03-03T22:56:19.935Z,99439.77
2019-03-03T22:58:50.260Z,99423.91
2019-03-03T23:01:23.571Z,99423.21
2019-03-03T23:04:09.343Z,99409.50
2019-03-03T23:06:44.723Z,99396.77
2019-03-03T23:09:48.774Z,99405.69
2019-03-03T23:13:03.034Z,99412.63
2019-03-03T23:15:48.469Z,99426.84
2019-03-03T23:19:17.570Z,99421.89
2019-03-03T23:22:35.384Z,99423.70
2019-03-03T23:25:54.788Z,99422.88
2019-03-03T23:28:25.522Z,99427.87
2019-03-03T23:30:56.825Z,99414.64
2019-03-03T23:33:28.064Z,99412.30
2019-03-03T23:35:58.034Z,99402.55
2019-03-03T23:38:27.985Z,99399.74
2019-03-03T23:40:58.866Z,99397.27
2019-03-03T23:43:28.842Z,99399.74
2019-03-03T23:45:59.748Z,99392.97
2019-03-03T23:48:31.626Z,99398.59
2019-03-03T23:51:01.606Z,99388.50
2019-03-03T23:53:31.499Z,99376.11
2019-03-03T23:56:01.380Z,99374.63
2019-03-03T23:58:31.364Z,99370.16
